sensor_id;sensor_type;location;lat;lon;timestamp;pressure;altitude;pressure_sealevel;temperature
65290;BMP180;51893;59.754;10.110;2023-04-03T00:01:22;103724.40;;;-0.72
65290;BMP180;51893;59.754;10.110;2023-04-03T00:03:49;103730.40;;;-0.80
65290;BMP180;51893;59.754;10.110;2023-04-03T00:06:19;103729.80;;;-0.82
65290;BMP180;51893;59.754;10.110;2023-04-03T00:08:48;103730.60;;;-0.80
65290;BMP180;51893;59.754;10.110;2023-04-03T00:11:17;103736.40;;;-0.80
65290;BMP180;51893;59.754;10.110;2023-04-03T00:13:44;103736.20;;;-0.80
65290;BMP180;51893;59.754;10.110;2023-04-03T00:16:15;103739.80;;;-0.72
65290;BMP180;51893;59.754;10.110;2023-04-03T00:18:42;103746.80;;;-0.70
65290;BMP180;51893;59.754;10.110;2023-04-03T00:21:13;103743.20;;;-0.70
65290;BMP180;51893;59.754;10.110;2023-04-03T00:23:41;103741.20;;;-0.68
65290;BMP180;51893;59.754;10.110;2023-04-03T00:26:09;103745.20;;;-0.60
65290;BMP180;51893;59.754;10.110;2023-04-03T00:28:36;103739.20;;;-0.60
65290;BMP180;51893;59.754;10.110;2023-04-03T00:31:03;103744.80;;;-0.60
65290;BMP180;51893;59.754;10.110;2023-04-03T00:33:30;103753.20;;;-0.70
65290;BMP180;51893;59.754;10.110;2023-04-03T00:35:57;103749.60;;;-0.80
65290;BMP180;51893;59.754;10.110;2023-04-03T00:38:24;103754.80;;;-0.80
65290;BMP180;51893;59.754;10.110;2023-04-03T00:40:52;103755.80;;;-0.80
65290;BMP180;51893;59.754;10.110;2023-04-03T00:43:25;103752.80;;;-0.90
65290;BMP180;51893;59.754;10.110;2023-04-03T00:45:56;103757.40;;;-0.92
65290;BMP180;51893;59.754;10.110;2023-04-03T00:48:45;103761.20;;;-0.98
65290;BMP180;51893;59.754;10.110;2023-04-03T00:51:20;103764.00;;;-0.98
65290;BMP180;51893;59.754;10.110;2023-04-03T00:54:01;103769.00;;;-1.00
65290;BMP180;51893;59.754;10.110;2023-04-03T00:56:30;103772.40;;;-1.08
65290;BMP180;51893;59.754;10.110;2023-04-03T00:59:16;103770.00;;;-1.10
65290;BMP180;51893;59.754;10.110;2023-04-03T01:01:48;103779.00;;;-1.20
65290;BMP180;51893;59.754;10.110;2023-04-03T01:04:34;103777.60;;;-1.20
65290;BMP180;51893;59.754;10.110;2023-04-03T01:07:26;103778.20;;;-1.24
65290;BMP180;51893;59.754;10.110;2023-04-03T01:10:01;103778.60;;;-1.30
65290;BMP180;51893;59.754;10.110;2023-04-03T01:12:33;103782.00;;;-1.30
65290;BMP180;51893;59.754;10.110;2023-04-03T01:15:10;103784.20;;;-1.40
65290;BMP180;51893;59.754;10.110;2023-04-03T01:17:48;103789.40;;;-1.50
65290;BMP180;51893;59.754;10.110;2023-04-03T01:25:54;103793.20;;;-1.60
65290;BMP180;51893;59.754;10.110;2023-04-03T01:28:29;103794.20;;;-1.60
65290;BMP180;51893;59.754;10.110;2023-04-03T01:31:40;103788.80;;;-1.60
65290;BMP180;51893;59.754;10.110;2023-04-03T01:34:08;103788.80;;;-1.54
65290;BMP180;51893;59.754;10.110;2023-04-03T01:36:35;103792.20;;;-1.60
65290;BMP180;51893;59.754;10.110;2023-04-03T01:39:02;103797.80;;;-1.60
65290;BMP180;51893;59.754;10.110;2023-04-03T01:41:29;103797.20;;;-1.54
65290;BMP180;51893;59.754;10.110;2023-04-03T01:43:56;103798.60;;;-1.50
65290;BMP180;51893;59.754;10.110;2023-04-03T01:46:23;103802.60;;;-1.50
65290;BMP180;51893;59.754;10.110;2023-04-03T01:48:51;103811.00;;;-1.50
65290;BMP180;51893;59.754;10.110;2023-04-03T01:51:17;103805.20;;;-1.60
65290;BMP180;51893;59.754;10.110;2023-04-03T01:53:46;103805.60;;;-1.60
65290;BMP180;51893;59.754;10.110;2023-04-03T01:56:13;103806.00;;;-1.60
65290;BMP180;51893;59.754;10.110;2023-04-03T01:58:40;103802.80;;;-1.60
65290;BMP180;51893;59.754;10.110;2023-04-03T02:01:07;103805.40;;;-1.60
65290;BMP180;51893;59.754;10.110;2023-04-03T02:03:33;103808.40;;;-1.60
65290;BMP180;51893;59.754;10.110;2023-04-03T02:06:00;103803.60;;;-1.60
65290;BMP180;51893;59.754;10.110;2023-04-03T02:08:27;103804.00;;;-1.70
65290;BMP180;51893;59.754;10.110;2023-04-03T02:10:58;103815.00;;;-1.76
65290;BMP180;51893;59.754;10.110;2023-04-03T02:13:25;103810.00;;;-1.80
65290;BMP180;51893;59.754;10.110;2023-04-03T02:15:52;103809.40;;;-1.90
65290;BMP180;51893;59.754;10.110;2023-04-03T02:18:19;103808.20;;;-1.90
65290;BMP180;51893;59.754;10.110;2023-04-03T02:20:47;103812.00;;;-1.90
65290;BMP180;51893;59.754;10.110;2023-04-03T02:23:14;103812.60;;;-1.90
65290;BMP180;51893;59.754;10.110;2023-04-03T02:25:40;103810.80;;;-1.90
65290;BMP180;51893;59.754;10.110;2023-04-03T02:28:07;103816.80;;;-1.90
65290;BMP180;51893;59.754;10.110;2023-04-03T02:30:34;103815.80;;;-1.98
65290;BMP180;51893;59.754;10.110;2023-04-03T02:33:02;103815.80;;;-1.98
65290;BMP180;51893;59.754;10.110;2023-04-03T02:35:31;103814.80;;;-2.00
65290;BMP180;51893;59.754;10.110;2023-04-03T02:37:58;103821.60;;;-2.00
65290;BMP180;51893;59.754;10.110;2023-04-03T02:40:24;103822.00;;;-2.00
65290;BMP180;51893;59.754;10.110;2023-04-03T02:42:52;103814.60;;;-2.00
65290;BMP180;51893;59.754;10.110;2023-04-03T02:45:19;103816.20;;;-2.00
65290;BMP180;51893;59.754;10.110;2023-04-03T02:47:45;103816.80;;;-2.10
65290;BMP180;51893;59.754;10.110;2023-04-03T02:50:13;103825.00;;;-2.10
65290;BMP180;51893;59.754;10.110;2023-04-03T02:52:41;103821.20;;;-2.10
65290;BMP180;51893;59.754;10.110;2023-04-03T02:55:08;103816.00;;;-2.10
65290;BMP180;51893;59.754;10.110;2023-04-03T02:57:35;103817.80;;;-2.00
65290;BMP180;51893;59.754;10.110;2023-04-03T03:00:03;103818.60;;;-2.00
65290;BMP180;51893;59.754;10.110;2023-04-03T03:02:29;103820.80;;;-2.10
65290;BMP180;51893;59.754;10.110;2023-04-03T03:04:56;103820.60;;;-2.12
65290;BMP180;51893;59.754;10.110;2023-04-03T03:07:22;103821.00;;;-2.20
65290;BMP180;51893;59.754;10.110;2023-04-03T03:09:50;103820.80;;;-2.20
65290;BMP180;51893;59.754;10.110;2023-04-03T03:12:18;103829.80;;;-2.20
65290;BMP180;51893;59.754;10.110;2023-04-03T03:14:48;103830.00;;;-2.30
65290;BMP180;51893;59.754;10.110;2023-04-03T03:17:15;103838.60;;;-2.30
65290;BMP180;51893;59.754;10.110;2023-04-03T03:19:42;103839.40;;;-2.30
65290;BMP180;51893;59.754;10.110;2023-04-03T03:22:09;103838.00;;;-2.30
65290;BMP180;51893;59.754;10.110;2023-04-03T03:24:36;103838.20;;;-2.40
65290;BMP180;51893;59.754;10.110;2023-04-03T03:27:03;103829.20;;;-2.44
65290;BMP180;51893;59.754;10.110;2023-04-03T03:29:31;103827.00;;;-2.50
65290;BMP180;51893;59.754;10.110;2023-04-03T03:31:59;103823.20;;;-2.50
65290;BMP180;51893;59.754;10.110;2023-04-03T03:34:26;103822.80;;;-2.40
65290;BMP180;51893;59.754;10.110;2023-04-03T03:36:52;103825.80;;;-2.40
65290;BMP180;51893;59.754;10.110;2023-04-03T03:39:20;103825.00;;;-2.40
65290;BMP180;51893;59.754;10.110;2023-04-03T03:41:46;103824.80;;;-2.50
65290;BMP180;51893;59.754;10.110;2023-04-03T03:44:13;103821.00;;;-2.50
65290;BMP180;51893;59.754;10.110;2023-04-03T03:46:44;103820.00;;;-2.50
65290;BMP180;51893;59.754;10.110;2023-04-03T03:49:12;103820.60;;;-2.56
65290;BMP180;51893;59.754;10.110;2023-04-03T03:51:40;103814.20;;;-2.50
65290;BMP180;51893;59.754;10.110;2023-04-03T03:54:07;103805.40;;;-2.50
65290;BMP180;51893;59.754;10.110;2023-04-03T03:56:37;103813.40;;;-2.50
65290;BMP180;51893;59.754;10.110;2023-04-03T03:59:04;103809.80;;;-2.60
65290;BMP180;51893;59.754;10.110;2023-04-03T04:01:32;103808.60;;;-2.60
65290;BMP180;51893;59.754;10.110;2023-04-03T04:03:59;103814.00;;;-2.60
65290;BMP180;51893;59.754;10.110;2023-04-03T04:06:28;103815.60;;;-2.70
65290;BMP180;51893;59.754;10.110;2023-04-03T04:08:55;103816.40;;;-2.72
65290;BMP180;51893;59.754;10.110;2023-04-03T04:11:23;103823.20;;;-2.80
65290;BMP180;51893;59.754;10.110;2023-04-03T04:13:49;103820.00;;;-2.84
65290;BMP180;51893;59.754;10.110;2023-04-03T04:16:16;103818.20;;;-2.90
65290;BMP180;51893;59.754;10.110;2023-04-03T04:18:44;103813.40;;;-2.90
65290;BMP180;51893;59.754;10.110;2023-04-03T04:21:12;103809.40;;;-2.92
65290;BMP180;51893;59.754;10.110;2023-04-03T04:23:40;103810.20;;;-2.98
65290;BMP180;51893;59.754;10.110;2023-04-03T04:26:07;103815.00;;;-3.00
65290;BMP180;51893;59.754;10.110;2023-04-03T04:28:34;103816.00;;;-3.00
65290;BMP180;51893;59.754;10.110;2023-04-03T04:31:01;103816.00;;;-3.00
65290;BMP180;51893;59.754;10.110;2023-04-03T04:33:28;103821.20;;;-3.10
65290;BMP180;51893;59.754;10.110;2023-04-03T04:35:55;103821.80;;;-3.10
65290;BMP180;51893;59.754;10.110;2023-04-03T04:38:25;103816.40;;;-3.20
65290;BMP180;51893;59.754;10.110;2023-04-03T04:40:51;103815.40;;;-3.10
65290;BMP180;51893;59.754;10.110;2023-04-03T04:43:18;103812.40;;;-3.10
65290;BMP180;51893;59.754;10.110;2023-04-03T04:45:48;103814.20;;;-3.10
65290;BMP180;51893;59.754;10.110;2023-04-03T04:48:16;103814.20;;;-3.10
65290;BMP180;51893;59.754;10.110;2023-04-03T04:50:43;103814.40;;;-3.10
65290;BMP180;51893;59.754;10.110;2023-04-03T04:53:11;103815.20;;;-3.10
65290;BMP180;51893;59.754;10.110;2023-04-03T04:55:39;103815.60;;;-3.10
65290;BMP180;51893;59.754;10.110;2023-04-03T04:58:06;103814.80;;;-3.10
65290;BMP180;51893;59.754;10.110;2023-04-03T05:00:35;103820.00;;;-3.20
65290;BMP180;51893;59.754;10.110;2023-04-03T05:03:03;103820.40;;;-3.20
65290;BMP180;51893;59.754;10.110;2023-04-03T05:05:30;103816.00;;;-3.20
65290;BMP180;51893;59.754;10.110;2023-04-03T05:07:58;103813.20;;;-3.14
65290;BMP180;51893;59.754;10.110;2023-04-03T05:10:25;103812.60;;;-3.10
65290;BMP180;51893;59.754;10.110;2023-04-03T05:12:51;103810.80;;;-3.12
65290;BMP180;51893;59.754;10.110;2023-04-03T05:15:18;103804.40;;;-3.10
65290;BMP180;51893;59.754;10.110;2023-04-03T05:17:47;103806.00;;;-3.12
65290;BMP180;51893;59.754;10.110;2023-04-03T05:20:14;103808.60;;;-3.20
65290;BMP180;51893;59.754;10.110;2023-04-03T05:22:41;103807.80;;;-3.10
65290;BMP180;51893;59.754;10.110;2023-04-03T05:25:10;103809.80;;;-3.10
65290;BMP180;51893;59.754;10.110;2023-04-03T05:27:36;103808.80;;;-3.10
65290;BMP180;51893;59.754;10.110;2023-04-03T05:30:05;103811.80;;;-3.10
65290;BMP180;51893;59.754;10.110;2023-04-03T05:32:32;103810.60;;;-3.10
65290;BMP180;51893;59.754;10.110;2023-04-03T05:34:59;103811.00;;;-3.00
65290;BMP180;51893;59.754;10.110;2023-04-03T05:37:27;103809.00;;;-3.02
65290;BMP180;51893;59.754;10.110;2023-04-03T05:39:54;103809.60;;;-2.98
65290;BMP180;51893;59.754;10.110;2023-04-03T05:42:21;103807.00;;;-2.90
65290;BMP180;51893;59.754;10.110;2023-04-03T05:44:49;103813.80;;;-2.90
65290;BMP180;51893;59.754;10.110;2023-04-03T05:47:18;103808.40;;;-2.84
65290;BMP180;51893;59.754;10.110;2023-04-03T05:49:45;103813.20;;;-2.80
65290;BMP180;51893;59.754;10.110;2023-04-03T05:52:37;103810.80;;;-2.74
65290;BMP180;51893;59.754;10.110;2023-04-03T05:55:06;103807.60;;;-2.70
65290;BMP180;51893;59.754;10.110;2023-04-03T05:57:33;103803.80;;;-2.68
65290;BMP180;51893;59.754;10.110;2023-04-03T06:00:00;103800.40;;;-2.60
65290;BMP180;51893;59.754;10.110;2023-04-03T06:02:26;103796.40;;;-2.60
65290;BMP180;51893;59.754;10.110;2023-04-03T06:04:54;103799.20;;;-2.56
65290;BMP180;51893;59.754;10.110;2023-04-03T06:07:24;103802.40;;;-2.52
65290;BMP180;51893;59.754;10.110;2023-04-03T06:09:57;103799.20;;;-2.50
65290;BMP180;51893;59.754;10.110;2023-04-03T06:12:24;103803.80;;;-2.40
65290;BMP180;51893;59.754;10.110;2023-04-03T06:14:51;103805.40;;;-2.40
65290;BMP180;51893;59.754;10.110;2023-04-03T06:17:18;103805.40;;;-2.38
65290;BMP180;51893;59.754;10.110;2023-04-03T06:19:46;103808.00;;;-2.38
65290;BMP180;51893;59.754;10.110;2023-04-03T06:22:15;103810.60;;;-2.40
65290;BMP180;51893;59.754;10.110;2023-04-03T06:24:43;103809.40;;;-2.40
65290;BMP180;51893;59.754;10.110;2023-04-03T06:27:11;103818.20;;;-2.50
65290;BMP180;51893;59.754;10.110;2023-04-03T06:29:39;103811.40;;;-2.42
65290;BMP180;51893;59.754;10.110;2023-04-03T06:32:06;103816.00;;;-2.40
65290;BMP180;51893;59.754;10.110;2023-04-03T06:34:33;103826.60;;;-2.30
65290;BMP180;51893;59.754;10.110;2023-04-03T06:37:01;103825.00;;;-2.30
65290;BMP180;51893;59.754;10.110;2023-04-03T06:39:27;103828.40;;;-2.20
65290;BMP180;51893;59.754;10.110;2023-04-03T06:41:57;103829.40;;;-2.20
65290;BMP180;51893;59.754;10.110;2023-04-03T06:44:26;103831.40;;;-2.18
65290;BMP180;51893;59.754;10.110;2023-04-03T06:46:56;103827.00;;;-2.10
65290;BMP180;51893;59.754;10.110;2023-04-03T06:49:24;103824.20;;;-2.10
65290;BMP180;51893;59.754;10.110;2023-04-03T06:51:51;103832.80;;;-2.08
65290;BMP180;51893;59.754;10.110;2023-04-03T06:54:20;103834.40;;;-2.00
65290;BMP180;51893;59.754;10.110;2023-04-03T06:56:52;103833.80;;;-1.90
65290;BMP180;51893;59.754;10.110;2023-04-03T06:59:20;103832.40;;;-1.90
65290;BMP180;51893;59.754;10.110;2023-04-03T07:01:48;103833.00;;;-1.80
65290;BMP180;51893;59.754;10.110;2023-04-03T07:04:16;103828.40;;;-1.70
65290;BMP180;51893;59.754;10.110;2023-04-03T07:06:43;103828.20;;;-1.60
65290;BMP180;51893;59.754;10.110;2023-04-03T07:09:10;103831.60;;;-1.60
65290;BMP180;51893;59.754;10.110;2023-04-03T07:11:39;103833.40;;;-1.50
65290;BMP180;51893;59.754;10.110;2023-04-03T07:14:07;103836.80;;;-1.50
65290;BMP180;51893;59.754;10.110;2023-04-03T07:16:37;103835.20;;;-1.40
65290;BMP180;51893;59.754;10.110;2023-04-03T07:19:10;103829.20;;;-1.40
65290;BMP180;51893;59.754;10.110;2023-04-03T07:21:37;103824.00;;;-1.30
65290;BMP180;51893;59.754;10.110;2023-04-03T07:24:04;103823.80;;;-1.30
65290;BMP180;51893;59.754;10.110;2023-04-03T07:26:32;103824.20;;;-1.20
65290;BMP180;51893;59.754;10.110;2023-04-03T07:28:59;103821.40;;;-1.10
65290;BMP180;51893;59.754;10.110;2023-04-03T07:31:26;103825.40;;;-1.10
65290;BMP180;51893;59.754;10.110;2023-04-03T07:33:52;103824.40;;;-1.10
65290;BMP180;51893;59.754;10.110;2023-04-03T07:36:22;103824.80;;;-1.00
65290;BMP180;51893;59.754;10.110;2023-04-03T07:38:51;103822.80;;;-1.04
65290;BMP180;51893;59.754;10.110;2023-04-03T07:41:20;103824.00;;;-1.00
65290;BMP180;51893;59.754;10.110;2023-04-03T07:43:48;103821.20;;;-1.00
65290;BMP180;51893;59.754;10.110;2023-04-03T07:46:16;103824.60;;;-0.90
65290;BMP180;51893;59.754;10.110;2023-04-03T07:48:45;103821.20;;;-0.80
65290;BMP180;51893;59.754;10.110;2023-04-03T07:51:14;103821.40;;;-0.70
65290;BMP180;51893;59.754;10.110;2023-04-03T07:53:44;103826.40;;;-0.70
65290;BMP180;51893;59.754;10.110;2023-04-03T07:56:16;103826.80;;;-0.70
65290;BMP180;51893;59.754;10.110;2023-04-03T07:58:43;103830.60;;;-0.70
65290;BMP180;51893;59.754;10.110;2023-04-03T08:01:13;103825.60;;;-0.70
65290;BMP180;51893;59.754;10.110;2023-04-03T08:03:40;103830.00;;;-0.70
65290;BMP180;51893;59.754;10.110;2023-04-03T08:06:09;103828.20;;;-0.70
65290;BMP180;51893;59.754;10.110;2023-04-03T08:08:42;103830.60;;;-0.70
65290;BMP180;51893;59.754;10.110;2023-04-03T08:11:12;103828.60;;;-0.60
65290;BMP180;51893;59.754;10.110;2023-04-03T08:13:39;103829.60;;;-0.40
65290;BMP180;51893;59.754;10.110;2023-04-03T08:16:15;103828.80;;;-0.40
65290;BMP180;51893;59.754;10.110;2023-04-03T08:18:44;103827.60;;;-0.30
65290;BMP180;51893;59.754;10.110;2023-04-03T08:21:13;103824.20;;;-0.30
65290;BMP180;51893;59.754;10.110;2023-04-03T08:23:42;103823.80;;;-0.26
65290;BMP180;51893;59.754;10.110;2023-04-03T08:26:13;103819.60;;;-0.10
65290;BMP180;51893;59.754;10.110;2023-04-03T08:28:42;103818.00;;;0.00
65290;BMP180;51893;59.754;10.110;2023-04-03T08:31:14;103817.00;;;0.14
65290;BMP180;51893;59.754;10.110;2023-04-03T08:33:42;103811.80;;;0.30
65290;BMP180;51893;59.754;10.110;2023-04-03T08:36:22;103812.60;;;0.46
65290;BMP180;51893;59.754;10.110;2023-04-03T08:38:54;103810.60;;;0.64
65290;BMP180;51893;59.754;10.110;2023-04-03T08:41:44;103806.20;;;0.80
65290;BMP180;51893;59.754;10.110;2023-04-03T08:44:39;103804.00;;;0.90
65290;BMP180;51893;59.754;10.110;2023-04-03T08:50:00;103797.20;;;1.20
65290;BMP180;51893;59.754;10.110;2023-04-03T08:52:45;103795.80;;;1.30
65290;BMP180;51893;59.754;10.110;2023-04-03T08:55:26;103792.80;;;1.50
65290;BMP180;51893;59.754;10.110;2023-04-03T08:58:03;103796.40;;;1.52
65290;BMP180;51893;59.754;10.110;2023-04-03T09:00:57;103795.80;;;1.70
65290;BMP180;51893;59.754;10.110;2023-04-03T09:03:25;103796.80;;;1.82
65290;BMP180;51893;59.754;10.110;2023-04-03T09:06:20;103792.80;;;2.00
65290;BMP180;51893;59.754;10.110;2023-04-03T09:18:21;103787.80;;;2.30
65290;BMP180;51893;59.754;10.110;2023-04-03T09:21:06;103780.20;;;2.54
65290;BMP180;51893;59.754;10.110;2023-04-03T09:23:44;103780.60;;;2.76
65290;BMP180;51893;59.754;10.110;2023-04-03T09:29:08;103771.00;;;3.20
65290;BMP180;51893;59.754;10.110;2023-04-03T09:31:52;103765.40;;;3.50
65290;BMP180;51893;59.754;10.110;2023-04-03T09:37:00;103762.60;;;3.80
65290;BMP180;51893;59.754;10.110;2023-04-03T09:39:53;103759.80;;;4.00
65290;BMP180;51893;59.754;10.110;2023-04-03T09:42:24;103756.60;;;4.20
65290;BMP180;51893;59.754;10.110;2023-04-03T09:45:04;103758.00;;;4.30
65290;BMP180;51893;59.754;10.110;2023-04-03T09:47:36;103754.40;;;4.50
65290;BMP180;51893;59.754;10.110;2023-04-03T09:52:58;103755.60;;;4.78
65290;BMP180;51893;59.754;10.110;2023-04-03T09:55:27;103752.40;;;4.90
65290;BMP180;51893;59.754;10.110;2023-04-03T09:58:28;103750.80;;;5.00
65290;BMP180;51893;59.754;10.110;2023-04-03T10:04:17;103751.00;;;5.20
65290;BMP180;51893;59.754;10.110;2023-04-03T10:09:25;103750.00;;;5.40
65290;BMP180;51893;59.754;10.110;2023-04-03T10:12:21;103744.80;;;5.54
65290;BMP180;51893;59.754;10.110;2023-04-03T10:15:00;103745.00;;;5.70
65290;BMP180;51893;59.754;10.110;2023-04-03T10:20:53;103735.40;;;5.96
65290;BMP180;51893;59.754;10.110;2023-04-03T10:27:00;103728.40;;;6.12
65290;BMP180;51893;59.754;10.110;2023-04-03T10:30:00;103723.80;;;6.20
65290;BMP180;51893;59.754;10.110;2023-04-03T10:32:57;103721.60;;;6.40
65290;BMP180;51893;59.754;10.110;2023-04-03T10:36:12;103719.60;;;6.50
65290;BMP180;51893;59.754;10.110;2023-04-03T10:39:17;103714.80;;;6.60
65290;BMP180;51893;59.754;10.110;2023-04-03T10:48:10;103707.40;;;6.90
65290;BMP180;51893;59.754;10.110;2023-04-03T10:56:47;103692.00;;;7.38
65290;BMP180;51893;59.754;10.110;2023-04-03T10:59:43;103695.60;;;7.44
65290;BMP180;51893;59.754;10.110;2023-04-03T11:02:25;103694.20;;;7.52
65290;BMP180;51893;59.754;10.110;2023-04-03T11:05:05;103693.40;;;7.70
65290;BMP180;51893;59.754;10.110;2023-04-03T11:07:47;103691.20;;;7.80
65290;BMP180;51893;59.754;10.110;2023-04-03T11:10:42;103687.00;;;7.90
65290;BMP180;51893;59.754;10.110;2023-04-03T11:13:43;103685.20;;;8.00
65290;BMP180;51893;59.754;10.110;2023-04-03T11:16:08;103681.80;;;8.00
65290;BMP180;51893;59.754;10.110;2023-04-03T11:18:44;103678.00;;;8.10
65290;BMP180;51893;59.754;10.110;2023-04-03T11:21:40;103674.60;;;8.20
65290;BMP180;51893;59.754;10.110;2023-04-03T11:24:22;103663.20;;;8.40
65290;BMP180;51893;59.754;10.110;2023-04-03T11:26:55;103667.20;;;8.40
65290;BMP180;51893;59.754;10.110;2023-04-03T11:29:31;103658.80;;;8.40
65290;BMP180;51893;59.754;10.110;2023-04-03T11:34:59;103653.60;;;8.60
65290;BMP180;51893;59.754;10.110;2023-04-03T11:37:40;103652.20;;;8.70
65290;BMP180;51893;59.754;10.110;2023-04-03T11:40:29;103642.60;;;8.80
65290;BMP180;51893;59.754;10.110;2023-04-03T11:48:00;103631.60;;;9.10
65290;BMP180;51893;59.754;10.110;2023-04-03T11:50:48;103630.40;;;9.06
65290;BMP180;51893;59.754;10.110;2023-04-03T11:58:27;103632.40;;;9.20
65290;BMP180;51893;59.754;10.110;2023-04-03T12:01:54;103631.00;;;9.10
65290;BMP180;51893;59.754;10.110;2023-04-03T12:04:26;103630.40;;;9.10
65290;BMP180;51893;59.754;10.110;2023-04-03T12:07:18;103630.20;;;9.20
65290;BMP180;51893;59.754;10.110;2023-04-03T12:12:40;103627.00;;;9.40
65290;BMP180;51893;59.754;10.110;2023-04-03T12:21:13;103619.80;;;9.20
65290;BMP180;51893;59.754;10.110;2023-04-03T12:27:17;103618.00;;;9.30
65290;BMP180;51893;59.754;10.110;2023-04-03T12:30:10;103608.20;;;9.30
65290;BMP180;51893;59.754;10.110;2023-04-03T12:33:02;103605.20;;;9.30
65290;BMP180;51893;59.754;10.110;2023-04-03T12:36:09;103608.80;;;9.30
65290;BMP180;51893;59.754;10.110;2023-04-03T12:39:12;103603.40;;;9.30
65290;BMP180;51893;59.754;10.110;2023-04-03T12:42:02;103600.20;;;9.30
65290;BMP180;51893;59.754;10.110;2023-04-03T12:45:16;103593.60;;;9.30
65290;BMP180;51893;59.754;10.110;2023-04-03T12:47:52;103591.00;;;9.30
65290;BMP180;51893;59.754;10.110;2023-04-03T12:50:23;103584.40;;;9.40
65290;BMP180;51893;59.754;10.110;2023-04-03T12:52:59;103574.80;;;9.46
65290;BMP180;51893;59.754;10.110;2023-04-03T12:55:26;103572.40;;;9.50
65290;BMP180;51893;59.754;10.110;2023-04-03T12:57:56;103565.60;;;9.60
65290;BMP180;51893;59.754;10.110;2023-04-03T13:00:32;103561.60;;;9.60
65290;BMP180;51893;59.754;10.110;2023-04-03T13:03:02;103559.40;;;9.60
65290;BMP180;51893;59.754;10.110;2023-04-03T13:05:34;103556.60;;;9.70
65290;BMP180;51893;59.754;10.110;2023-04-03T13:08:10;103556.80;;;9.82
65290;BMP180;51893;59.754;10.110;2023-04-03T13:10:54;103552.40;;;9.94
65290;BMP180;51893;59.754;10.110;2023-04-03T13:13:22;103549.00;;;10.00
65290;BMP180;51893;59.754;10.110;2023-04-03T13:15:50;103544.60;;;10.00
65290;BMP180;51893;59.754;10.110;2023-04-03T13:18:37;103545.80;;;10.00
65290;BMP180;51893;59.754;10.110;2023-04-03T13:21:15;103540.20;;;10.00
65290;BMP180;51893;59.754;10.110;2023-04-03T13:23:48;103538.00;;;10.10
65290;BMP180;51893;59.754;10.110;2023-04-03T13:26:28;103534.00;;;10.10
65290;BMP180;51893;59.754;10.110;2023-04-03T13:29:02;103522.60;;;10.12
65290;BMP180;51893;59.754;10.110;2023-04-03T13:31:39;103516.80;;;10.20
65290;BMP180;51893;59.754;10.110;2023-04-03T13:36:41;103506.60;;;10.20
65290;BMP180;51893;59.754;10.110;2023-04-03T13:41:50;103497.00;;;10.10
65290;BMP180;51893;59.754;10.110;2023-04-03T13:46:52;103487.00;;;9.90
65290;BMP180;51893;59.754;10.110;2023-04-03T13:52:40;103464.20;;;9.90
65290;BMP180;51893;59.754;10.110;2023-04-03T13:55:54;103463.40;;;10.00
65290;BMP180;51893;59.754;10.110;2023-04-03T13:58:24;103467.00;;;9.90
65290;BMP180;51893;59.754;10.110;2023-04-03T14:03:30;103463.40;;;9.90
65290;BMP180;51893;59.754;10.110;2023-04-03T14:05:57;103464.60;;;9.90
65290;BMP180;51893;59.754;10.110;2023-04-03T14:08:24;103465.80;;;9.80
65290;BMP180;51893;59.754;10.110;2023-04-03T14:11:22;103465.40;;;9.80
65290;BMP180;51893;59.754;10.110;2023-04-03T14:13:50;103472.60;;;9.80
65290;BMP180;51893;59.754;10.110;2023-04-03T14:16:44;103475.20;;;9.80
65290;BMP180;51893;59.754;10.110;2023-04-03T14:19:31;103471.20;;;9.80
65290;BMP180;51893;59.754;10.110;2023-04-03T14:22:00;103473.40;;;9.76
65290;BMP180;51893;59.754;10.110;2023-04-03T14:24:29;103468.20;;;9.64
65290;BMP180;51893;59.754;10.110;2023-04-03T14:26:57;103463.40;;;9.60
65290;BMP180;51893;59.754;10.110;2023-04-03T14:29:25;103460.40;;;9.58
65290;BMP180;51893;59.754;10.110;2023-04-03T14:31:52;103456.80;;;9.50
65290;BMP180;51893;59.754;10.110;2023-04-03T14:34:38;103454.00;;;9.42
65290;BMP180;51893;59.754;10.110;2023-04-03T14:37:11;103448.60;;;9.40
65290;BMP180;51893;59.754;10.110;2023-04-03T14:39:40;103450.60;;;9.46
65290;BMP180;51893;59.754;10.110;2023-04-03T14:42:21;103451.00;;;9.50
65290;BMP180;51893;59.754;10.110;2023-04-03T14:44:49;103445.20;;;9.50
65290;BMP180;51893;59.754;10.110;2023-04-03T14:47:23;103445.60;;;9.40
65290;BMP180;51893;59.754;10.110;2023-04-03T14:50:07;103441.60;;;9.40
65290;BMP180;51893;59.754;10.110;2023-04-03T14:52:36;103439.20;;;9.50
65290;BMP180;51893;59.754;10.110;2023-04-03T14:55:15;103437.20;;;9.48
65290;BMP180;51893;59.754;10.110;2023-04-03T14:57:42;103441.40;;;9.50
65290;BMP180;51893;59.754;10.110;2023-04-03T15:00:18;103438.20;;;9.50
65290;BMP180;51893;59.754;10.110;2023-04-03T15:02:47;103435.00;;;9.50
65290;BMP180;51893;59.754;10.110;2023-04-03T15:05:16;103431.20;;;9.52
65290;BMP180;51893;59.754;10.110;2023-04-03T15:07:55;103431.80;;;9.50
65290;BMP180;51893;59.754;10.110;2023-04-03T15:10:29;103433.20;;;9.50
65290;BMP180;51893;59.754;10.110;2023-04-03T15:13:04;103432.80;;;9.50
65290;BMP180;51893;59.754;10.110;2023-04-03T15:15:32;103435.80;;;9.50
65290;BMP180;51893;59.754;10.110;2023-04-03T15:18:00;103439.60;;;9.60
65290;BMP180;51893;59.754;10.110;2023-04-03T15:20:33;103426.40;;;9.70
65290;BMP180;51893;59.754;10.110;2023-04-03T15:23:02;103430.00;;;9.80
65290;BMP180;51893;59.754;10.110;2023-04-03T15:25:29;103433.80;;;9.82
65290;BMP180;51893;59.754;10.110;2023-04-03T15:27:57;103429.80;;;9.90
65290;BMP180;51893;59.754;10.110;2023-04-03T15:30:26;103431.20;;;9.90
65290;BMP180;51893;59.754;10.110;2023-04-03T15:32:57;103429.40;;;9.90
65290;BMP180;51893;59.754;10.110;2023-04-03T15:35:25;103425.40;;;10.00
65290;BMP180;51893;59.754;10.110;2023-04-03T15:37:55;103422.80;;;10.10
65290;BMP180;51893;59.754;10.110;2023-04-03T15:40:22;103419.00;;;10.10
65290;BMP180;51893;59.754;10.110;2023-04-03T15:42:49;103415.40;;;10.10
65290;BMP180;51893;59.754;10.110;2023-04-03T15:45:19;103410.40;;;10.16
65290;BMP180;51893;59.754;10.110;2023-04-03T15:47:48;103416.40;;;10.20
65290;BMP180;51893;59.754;10.110;2023-04-03T15:50:18;103407.80;;;10.30